This is the latest recevied weather packets stored in our database for station/object DG4CB-13. If no packets are shown the sender has not sent any weather packets the latest 10 day(s).
| Time | Temp. | Humidity | Pressure | Rain* | Wind** | Luminosity | Snow |
|---|---|---|---|---|---|---|---|
| 1777709399 | 16.67° C | 47% | 1020.1 hPa | - | - | - | - |
| 1777708799 | 16.11° C | 49% | 1020.2 hPa | - | - | - | - |
| 1777708200 | 15.56° C | 51% | 1020.2 hPa | - | - | - | - |
| 1777707600 | 14.44° C | 54% | 1020.2 hPa | - | - | - | - |
| 1777707004 | 13.89° C | 56% | 1020.4 hPa | - | - | - | - |
| 1777705203 | 11.67° C | 64% | 1020.5 hPa | - | - | - | - |
| 1777704601 | 10.56° C | 65% | 1020.6 hPa | - | - | - | - |
| 1777704001 | 10° C | 66% | 1020.5 hPa | - | - | - | - |
| 1777703399 | 9.44° C | 66% | 1020.6 hPa | - | - | - | - |
| 1777702802 | 8.89° C | 66% | 1020.7 hPa | - | - | - | - |
| 1777702200 | 8.89° C | 66% | 1020.8 hPa | - | - | - | - |
| 1777701599 | 8.33° C | 67% | 1020.9 hPa | - | - | - | - |
| 1777701000 | 7.78° C | 68% | 1020.8 hPa | - | - | - | - |
| 1777700400 | 7.22° C | 70% | 1020.9 hPa | - | - | - | - |
| 1777699799 | 7.22° C | 69% | 1020.9 hPa | - | - | - | - |
| 1777699199 | 7.22° C | 70% | 1020.8 hPa | - | - | - | - |
| 1777698599 | 6.67° C | 71% | 1020.8 hPa | - | - | - | - |
| 1777698000 | 6.67° C | 70% | 1020.9 hPa | - | - | - | - |
| 1777697399 | 6.67° C | 70% | 1020.8 hPa | - | - | - | - |
| 1777696800 | 6.67° C | 69% | 1021 hPa | - | - | - | - |
| 1777696199 | 6.67° C | 68% | 1020.8 hPa | - | - | - | - |
| 1777695600 | 6.67° C | 69% | 1020.8 hPa | - | - | - | - |
| 1777694999 | 6.67° C | 69% | 1020.8 hPa | - | - | - | - |
| 1777694400 | 6.67° C | 69% | 1020.9 hPa | - | - | - | - |
| 1777693800 | 7.22° C | 69% | 1020.9 hPa | - | - | - | - |
* Rain since midnight (hover to see other rain measurements)
** Current wind speed in m/s (hover to see current wind gust speed)